sensor_id;sensor_type;location;lat;lon;timestamp;temperature;humidity
14182;DHT22;7171;50.936;6.764;2023-05-07T00:02:15;16.20;99.90
14182;DHT22;7171;50.936;6.764;2023-05-07T00:04:41;16.20;99.90
14182;DHT22;7171;50.936;6.764;2023-05-07T00:07:09;16.20;99.90
14182;DHT22;7171;50.936;6.764;2023-05-07T00:09:36;16.20;99.90
14182;DHT22;7171;50.936;6.764;2023-05-07T00:12:03;16.20;99.90
14182;DHT22;7171;50.936;6.764;2023-05-07T00:14:31;16.20;99.90
14182;DHT22;7171;50.936;6.764;2023-05-07T00:16:58;16.20;99.90
14182;DHT22;7171;50.936;6.764;2023-05-07T00:19:25;16.10;99.90
14182;DHT22;7171;50.936;6.764;2023-05-07T00:21:51;16.10;99.90
14182;DHT22;7171;50.936;6.764;2023-05-07T00:24:20;16.10;99.90
14182;DHT22;7171;50.936;6.764;2023-05-07T00:26:46;16.10;99.90
14182;DHT22;7171;50.936;6.764;2023-05-07T00:29:13;16.10;99.90
14182;DHT22;7171;50.936;6.764;2023-05-07T00:31:41;16.10;99.90
14182;DHT22;7171;50.936;6.764;2023-05-07T00:34:08;16.10;99.90
14182;DHT22;7171;50.936;6.764;2023-05-07T00:36:35;16.10;99.90
14182;DHT22;7171;50.936;6.764;2023-05-07T00:39:02;16.10;99.90
14182;DHT22;7171;50.936;6.764;2023-05-07T00:41:29;16.10;99.90
14182;DHT22;7171;50.936;6.764;2023-05-07T00:43:56;16.10;99.90
14182;DHT22;7171;50.936;6.764;2023-05-07T00:46:23;16.10;99.90
14182;DHT22;7171;50.936;6.764;2023-05-07T00:48:52;16.10;99.90
14182;DHT22;7171;50.936;6.764;2023-05-07T00:51:20;16.10;99.90
14182;DHT22;7171;50.936;6.764;2023-05-07T00:53:47;16.30;99.90
14182;DHT22;7171;50.936;6.764;2023-05-07T00:56:14;16.10;99.90
14182;DHT22;7171;50.936;6.764;2023-05-07T00:58:41;16.10;99.90
14182;DHT22;7171;50.936;6.764;2023-05-07T01:01:08;16.60;99.90
14182;DHT22;7171;50.936;6.764;2023-05-07T01:03:35;16.10;99.90
14182;DHT22;7171;50.936;6.764;2023-05-07T01:06:04;16.00;99.90
14182;DHT22;7171;50.936;6.764;2023-05-07T01:08:31;16.10;99.90
14182;DHT22;7171;50.936;6.764;2023-05-07T01:11:00;16.00;99.90
14182;DHT22;7171;50.936;6.764;2023-05-07T01:13:27;16.00;99.90
14182;DHT22;7171;50.936;6.764;2023-05-07T01:15:55;16.00;99.90
14182;DHT22;7171;50.936;6.764;2023-05-07T01:18:22;16.00;99.90
14182;DHT22;7171;50.936;6.764;2023-05-07T01:20:48;16.00;99.90
14182;DHT22;7171;50.936;6.764;2023-05-07T01:23:17;16.00;99.90
14182;DHT22;7171;50.936;6.764;2023-05-07T01:25:51;16.00;99.90
14182;DHT22;7171;50.936;6.764;2023-05-07T01:28:18;16.00;99.90
14182;DHT22;7171;50.936;6.764;2023-05-07T01:30:48;16.00;99.90
14182;DHT22;7171;50.936;6.764;2023-05-07T01:33:18;16.00;99.90
14182;DHT22;7171;50.936;6.764;2023-05-07T01:35:49;16.00;99.90
14182;DHT22;7171;50.936;6.764;2023-05-07T01:38:18;16.00;99.90
14182;DHT22;7171;50.936;6.764;2023-05-07T01:40:45;16.00;99.90
14182;DHT22;7171;50.936;6.764;2023-05-07T01:43:12;16.00;99.90
14182;DHT22;7171;50.936;6.764;2023-05-07T01:45:40;16.00;99.90
14182;DHT22;7171;50.936;6.764;2023-05-07T01:48:08;16.00;99.90
14182;DHT22;7171;50.936;6.764;2023-05-07T01:50:37;15.90;99.90
14182;DHT22;7171;50.936;6.764;2023-05-07T01:53:03;16.00;99.90
14182;DHT22;7171;50.936;6.764;2023-05-07T01:55:32;15.90;99.90
14182;DHT22;7171;50.936;6.764;2023-05-07T01:57:59;15.90;99.90
14182;DHT22;7171;50.936;6.764;2023-05-07T02:00:26;16.00;99.90
14182;DHT22;7171;50.936;6.764;2023-05-07T02:02:52;15.90;99.90
14182;DHT22;7171;50.936;6.764;2023-05-07T02:05:19;15.90;99.90
14182;DHT22;7171;50.936;6.764;2023-05-07T02:07:46;15.90;99.90
14182;DHT22;7171;50.936;6.764;2023-05-07T02:10:13;15.90;99.90
14182;DHT22;7171;50.936;6.764;2023-05-07T02:12:41;15.90;99.90
14182;DHT22;7171;50.936;6.764;2023-05-07T02:15:09;15.90;99.90
14182;DHT22;7171;50.936;6.764;2023-05-07T02:17:39;15.90;99.90
14182;DHT22;7171;50.936;6.764;2023-05-07T02:20:23;15.90;99.90
14182;DHT22;7171;50.936;6.764;2023-05-07T02:22:50;15.80;99.90
14182;DHT22;7171;50.936;6.764;2023-05-07T02:25:17;15.80;99.90
14182;DHT22;7171;50.936;6.764;2023-05-07T02:27:45;15.80;99.90
14182;DHT22;7171;50.936;6.764;2023-05-07T02:30:13;15.80;99.90
14182;DHT22;7171;50.936;6.764;2023-05-07T02:32:40;15.80;99.90
14182;DHT22;7171;50.936;6.764;2023-05-07T02:35:07;15.90;99.90
14182;DHT22;7171;50.936;6.764;2023-05-07T02:37:34;15.80;99.90
14182;DHT22;7171;50.936;6.764;2023-05-07T02:40:01;15.70;99.90
14182;DHT22;7171;50.936;6.764;2023-05-07T02:42:29;15.70;99.90
14182;DHT22;7171;50.936;6.764;2023-05-07T02:44:57;15.80;99.90
14182;DHT22;7171;50.936;6.764;2023-05-07T02:47:24;15.70;99.90
14182;DHT22;7171;50.936;6.764;2023-05-07T02:49:52;15.70;99.90
14182;DHT22;7171;50.936;6.764;2023-05-07T02:52:19;15.70;99.90
14182;DHT22;7171;50.936;6.764;2023-05-07T02:54:45;15.70;99.90
14182;DHT22;7171;50.936;6.764;2023-05-07T02:57:12;15.70;99.90
14182;DHT22;7171;50.936;6.764;2023-05-07T02:59:39;15.70;99.90
14182;DHT22;7171;50.936;6.764;2023-05-07T03:02:07;15.60;99.90
14182;DHT22;7171;50.936;6.764;2023-05-07T03:04:34;15.60;99.90
14182;DHT22;7171;50.936;6.764;2023-05-07T03:07:01;15.60;99.90
14182;DHT22;7171;50.936;6.764;2023-05-07T03:09:27;15.60;99.90
14182;DHT22;7171;50.936;6.764;2023-05-07T03:11:54;15.60;99.90
14182;DHT22;7171;50.936;6.764;2023-05-07T03:14:21;15.60;99.90
14182;DHT22;7171;50.936;6.764;2023-05-07T03:16:49;15.50;99.90
14182;DHT22;7171;50.936;6.764;2023-05-07T03:19:17;15.50;99.90
14182;DHT22;7171;50.936;6.764;2023-05-07T03:21:44;15.50;99.90
14182;DHT22;7171;50.936;6.764;2023-05-07T03:24:11;15.50;99.90
14182;DHT22;7171;50.936;6.764;2023-05-07T03:26:38;15.50;99.90
14182;DHT22;7171;50.936;6.764;2023-05-07T03:29:04;15.50;99.90
14182;DHT22;7171;50.936;6.764;2023-05-07T03:31:31;15.40;99.90
14182;DHT22;7171;50.936;6.764;2023-05-07T03:33:58;15.40;99.90
14182;DHT22;7171;50.936;6.764;2023-05-07T03:36:26;15.40;99.90
14182;DHT22;7171;50.936;6.764;2023-05-07T03:38:53;15.40;99.90
14182;DHT22;7171;50.936;6.764;2023-05-07T03:41:20;15.40;99.90
14182;DHT22;7171;50.936;6.764;2023-05-07T03:43:47;15.40;99.90
14182;DHT22;7171;50.936;6.764;2023-05-07T03:46:13;15.30;99.90
14182;DHT22;7171;50.936;6.764;2023-05-07T03:48:40;15.40;99.90
14182;DHT22;7171;50.936;6.764;2023-05-07T03:51:07;15.40;99.90
14182;DHT22;7171;50.936;6.764;2023-05-07T03:53:35;15.30;99.90
14182;DHT22;7171;50.936;6.764;2023-05-07T03:56:02;15.30;99.90
14182;DHT22;7171;50.936;6.764;2023-05-07T03:58:29;15.30;99.90
14182;DHT22;7171;50.936;6.764;2023-05-07T04:00:56;15.30;99.90
14182;DHT22;7171;50.936;6.764;2023-05-07T04:03:22;15.30;99.90
14182;DHT22;7171;50.936;6.764;2023-05-07T04:05:49;15.30;99.90
14182;DHT22;7171;50.936;6.764;2023-05-07T04:08:16;15.30;99.90
14182;DHT22;7171;50.936;6.764;2023-05-07T04:10:44;15.30;99.90
14182;DHT22;7171;50.936;6.764;2023-05-07T04:13:11;15.30;99.90
14182;DHT22;7171;50.936;6.764;2023-05-07T04:15:38;15.30;99.90
14182;DHT22;7171;50.936;6.764;2023-05-07T04:18:04;15.30;99.90
14182;DHT22;7171;50.936;6.764;2023-05-07T04:20:34;15.20;99.90
14182;DHT22;7171;50.936;6.764;2023-05-07T04:23:01;15.30;99.90
14182;DHT22;7171;50.936;6.764;2023-05-07T04:25:28;15.30;99.90
14182;DHT22;7171;50.936;6.764;2023-05-07T04:27:59;15.30;99.90
14182;DHT22;7171;50.936;6.764;2023-05-07T04:30:26;15.30;99.90
14182;DHT22;7171;50.936;6.764;2023-05-07T04:32:53;15.30;99.90
14182;DHT22;7171;50.936;6.764;2023-05-07T04:35:19;15.30;99.90
14182;DHT22;7171;50.936;6.764;2023-05-07T04:37:46;15.30;99.90
14182;DHT22;7171;50.936;6.764;2023-05-07T04:40:13;15.30;99.90
14182;DHT22;7171;50.936;6.764;2023-05-07T04:42:40;15.30;99.90
14182;DHT22;7171;50.936;6.764;2023-05-07T04:45:08;15.30;99.90
14182;DHT22;7171;50.936;6.764;2023-05-07T04:47:35;15.30;99.90
14182;DHT22;7171;50.936;6.764;2023-05-07T04:50:02;15.40;99.90
14182;DHT22;7171;50.936;6.764;2023-05-07T04:52:29;15.40;99.90
14182;DHT22;7171;50.936;6.764;2023-05-07T04:54:58;15.30;99.90
14182;DHT22;7171;50.936;6.764;2023-05-07T04:57:25;15.40;99.90
14182;DHT22;7171;50.936;6.764;2023-05-07T04:59:52;15.40;99.90
14182;DHT22;7171;50.936;6.764;2023-05-07T05:02:20;15.40;99.90
14182;DHT22;7171;50.936;6.764;2023-05-07T05:04:46;15.40;99.90
14182;DHT22;7171;50.936;6.764;2023-05-07T05:07:13;15.40;99.90
14182;DHT22;7171;50.936;6.764;2023-05-07T05:09:40;15.40;99.90
14182;DHT22;7171;50.936;6.764;2023-05-07T05:12:07;15.40;99.90
14182;DHT22;7171;50.936;6.764;2023-05-07T05:14:33;15.40;99.90
14182;DHT22;7171;50.936;6.764;2023-05-07T05:17:00;15.40;99.90
14182;DHT22;7171;50.936;6.764;2023-05-07T05:19:28;15.40;99.90
14182;DHT22;7171;50.936;6.764;2023-05-07T05:21:55;15.50;99.90
14182;DHT22;7171;50.936;6.764;2023-05-07T05:24:21;15.50;99.90
14182;DHT22;7171;50.936;6.764;2023-05-07T05:26:48;15.50;99.90
14182;DHT22;7171;50.936;6.764;2023-05-07T05:29:15;15.50;99.90
14182;DHT22;7171;50.936;6.764;2023-05-07T05:31:42;15.50;99.90
14182;DHT22;7171;50.936;6.764;2023-05-07T05:34:08;15.60;99.90
14182;DHT22;7171;50.936;6.764;2023-05-07T05:36:36;15.60;99.90
14182;DHT22;7171;50.936;6.764;2023-05-07T05:39:04;15.60;99.90
14182;DHT22;7171;50.936;6.764;2023-05-07T05:41:31;15.60;99.90
14182;DHT22;7171;50.936;6.764;2023-05-07T05:43:58;15.70;99.90
14182;DHT22;7171;50.936;6.764;2023-05-07T05:46:24;15.70;99.90
14182;DHT22;7171;50.936;6.764;2023-05-07T05:48:51;15.70;99.90
14182;DHT22;7171;50.936;6.764;2023-05-07T05:51:18;15.70;99.90
14182;DHT22;7171;50.936;6.764;2023-05-07T05:53:46;15.70;99.90
14182;DHT22;7171;50.936;6.764;2023-05-07T05:56:13;15.70;99.90
14182;DHT22;7171;50.936;6.764;2023-05-07T05:58:39;15.80;99.90
14182;DHT22;7171;50.936;6.764;2023-05-07T06:01:06;15.80;99.90
14182;DHT22;7171;50.936;6.764;2023-05-07T06:03:33;15.80;99.90
14182;DHT22;7171;50.936;6.764;2023-05-07T06:06:00;15.90;99.90
14182;DHT22;7171;50.936;6.764;2023-05-07T06:08:29;15.90;99.90
14182;DHT22;7171;50.936;6.764;2023-05-07T06:10:58;15.90;99.90
14182;DHT22;7171;50.936;6.764;2023-05-07T06:13:25;15.90;99.90
14182;DHT22;7171;50.936;6.764;2023-05-07T06:15:52;16.00;99.90
14182;DHT22;7171;50.936;6.764;2023-05-07T06:18:18;16.00;99.90
14182;DHT22;7171;50.936;6.764;2023-05-07T06:20:45;16.00;99.90
14182;DHT22;7171;50.936;6.764;2023-05-07T06:23:12;16.00;99.90
14182;DHT22;7171;50.936;6.764;2023-05-07T06:25:40;16.10;99.90
14182;DHT22;7171;50.936;6.764;2023-05-07T06:28:08;16.10;99.90
14182;DHT22;7171;50.936;6.764;2023-05-07T06:30:36;16.20;99.90
14182;DHT22;7171;50.936;6.764;2023-05-07T06:33:03;16.20;99.90
14182;DHT22;7171;50.936;6.764;2023-05-07T06:35:30;16.20;99.90
14182;DHT22;7171;50.936;6.764;2023-05-07T06:37:56;16.30;99.90
14182;DHT22;7171;50.936;6.764;2023-05-07T06:40:23;16.30;99.90
14182;DHT22;7171;50.936;6.764;2023-05-07T06:42:50;16.40;99.90
14182;DHT22;7171;50.936;6.764;2023-05-07T06:45:19;16.40;99.90
14182;DHT22;7171;50.936;6.764;2023-05-07T06:47:46;16.40;99.90
14182;DHT22;7171;50.936;6.764;2023-05-07T06:50:13;16.40;99.90
14182;DHT22;7171;50.936;6.764;2023-05-07T06:52:41;16.60;99.90
14182;DHT22;7171;50.936;6.764;2023-05-07T06:55:08;16.60;99.90
14182;DHT22;7171;50.936;6.764;2023-05-07T06:57:36;16.60;99.90
14182;DHT22;7171;50.936;6.764;2023-05-07T07:00:04;16.70;99.90
14182;DHT22;7171;50.936;6.764;2023-05-07T07:02:33;16.80;99.90
14182;DHT22;7171;50.936;6.764;2023-05-07T07:05:00;16.90;99.90
14182;DHT22;7171;50.936;6.764;2023-05-07T07:07:27;16.90;99.90
14182;DHT22;7171;50.936;6.764;2023-05-07T07:09:54;17.00;99.90
14182;DHT22;7171;50.936;6.764;2023-05-07T07:12:20;17.00;99.90
14182;DHT22;7171;50.936;6.764;2023-05-07T07:14:48;17.10;99.90
14182;DHT22;7171;50.936;6.764;2023-05-07T07:17:14;17.20;99.90
14182;DHT22;7171;50.936;6.764;2023-05-07T07:19:43;17.20;99.90
14182;DHT22;7171;50.936;6.764;2023-05-07T07:22:09;17.30;99.90
14182;DHT22;7171;50.936;6.764;2023-05-07T07:24:36;17.40;99.90
14182;DHT22;7171;50.936;6.764;2023-05-07T07:27:03;17.40;99.90
14182;DHT22;7171;50.936;6.764;2023-05-07T07:29:30;17.50;99.90
14182;DHT22;7171;50.936;6.764;2023-05-07T07:31:57;17.40;99.90
14182;DHT22;7171;50.936;6.764;2023-05-07T07:34:23;17.60;99.90
14182;DHT22;7171;50.936;6.764;2023-05-07T07:36:52;17.80;99.90
14182;DHT22;7171;50.936;6.764;2023-05-07T07:39:18;17.80;99.90
14182;DHT22;7171;50.936;6.764;2023-05-07T07:41:45;17.90;99.90
14182;DHT22;7171;50.936;6.764;2023-05-07T07:44:12;18.00;99.90
14182;DHT22;7171;50.936;6.764;2023-05-07T07:46:39;18.00;99.90
14182;DHT22;7171;50.936;6.764;2023-05-07T07:51:35;18.20;99.90
14182;DHT22;7171;50.936;6.764;2023-05-07T07:54:03;18.30;99.90
14182;DHT22;7171;50.936;6.764;2023-05-07T07:56:31;18.40;99.90
14182;DHT22;7171;50.936;6.764;2023-05-07T07:58:58;18.40;99.90
14182;DHT22;7171;50.936;6.764;2023-05-07T08:01:25;18.40;99.90
14182;DHT22;7171;50.936;6.764;2023-05-07T08:03:52;18.50;99.90
14182;DHT22;7171;50.936;6.764;2023-05-07T08:06:19;18.30;99.90
14182;DHT22;7171;50.936;6.764;2023-05-07T08:08:46;18.60;99.90
14182;DHT22;7171;50.936;6.764;2023-05-07T08:11:14;18.60;99.90
14182;DHT22;7171;50.936;6.764;2023-05-07T08:13:41;18.70;99.90
14182;DHT22;7171;50.936;6.764;2023-05-07T08:16:08;18.70;99.90
14182;DHT22;7171;50.936;6.764;2023-05-07T08:18:35;18.80;99.90
14182;DHT22;7171;50.936;6.764;2023-05-07T08:21:02;18.80;99.90
14182;DHT22;7171;50.936;6.764;2023-05-07T08:23:28;18.80;99.90
14182;DHT22;7171;50.936;6.764;2023-05-07T08:25:56;18.90;99.90
14182;DHT22;7171;50.936;6.764;2023-05-07T08:30:51;18.90;99.90
14182;DHT22;7171;50.936;6.764;2023-05-07T08:33:18;18.80;99.90
14182;DHT22;7171;50.936;6.764;2023-05-07T08:35:44;18.90;99.90
14182;DHT22;7171;50.936;6.764;2023-05-07T08:38:11;19.00;99.90
14182;DHT22;7171;50.936;6.764;2023-05-07T08:40:39;19.00;99.90
14182;DHT22;7171;50.936;6.764;2023-05-07T08:43:07;19.10;99.90
14182;DHT22;7171;50.936;6.764;2023-05-07T08:45:35;19.10;99.90
14182;DHT22;7171;50.936;6.764;2023-05-07T08:48:09;19.20;99.90
14182;DHT22;7171;50.936;6.764;2023-05-07T08:50:36;19.30;99.90
14182;DHT22;7171;50.936;6.764;2023-05-07T08:53:03;19.30;99.90
14182;DHT22;7171;50.936;6.764;2023-05-07T08:55:30;19.40;99.90
14182;DHT22;7171;50.936;6.764;2023-05-07T08:57:58;19.50;99.90
14182;DHT22;7171;50.936;6.764;2023-05-07T09:00:25;19.60;99.90
14182;DHT22;7171;50.936;6.764;2023-05-07T09:02:53;19.60;99.90
14182;DHT22;7171;50.936;6.764;2023-05-07T09:05:20;19.60;99.90
14182;DHT22;7171;50.936;6.764;2023-05-07T09:07:48;19.70;99.90
14182;DHT22;7171;50.936;6.764;2023-05-07T09:10:15;19.70;99.90
14182;DHT22;7171;50.936;6.764;2023-05-07T09:12:42;19.70;99.90
14182;DHT22;7171;50.936;6.764;2023-05-07T09:15:10;19.80;99.90
14182;DHT22;7171;50.936;6.764;2023-05-07T09:17:37;19.80;99.90
14182;DHT22;7171;50.936;6.764;2023-05-07T09:20:06;19.80;99.90
14182;DHT22;7171;50.936;6.764;2023-05-07T09:22:33;19.80;99.90
14182;DHT22;7171;50.936;6.764;2023-05-07T09:25:00;19.90;99.90
14182;DHT22;7171;50.936;6.764;2023-05-07T09:27:27;19.90;99.90
14182;DHT22;7171;50.936;6.764;2023-05-07T09:29:54;20.00;99.90
14182;DHT22;7171;50.936;6.764;2023-05-07T09:32:21;20.00;99.90
14182;DHT22;7171;50.936;6.764;2023-05-07T09:34:48;20.10;99.90
14182;DHT22;7171;50.936;6.764;2023-05-07T09:37:16;20.10;99.90
14182;DHT22;7171;50.936;6.764;2023-05-07T09:39:44;20.20;99.90
14182;DHT22;7171;50.936;6.764;2023-05-07T09:42:11;20.30;99.90
14182;DHT22;7171;50.936;6.764;2023-05-07T09:47:07;20.20;99.90
14182;DHT22;7171;50.936;6.764;2023-05-07T09:52:03;20.70;99.90
14182;DHT22;7171;50.936;6.764;2023-05-07T09:54:33;20.80;99.90
14182;DHT22;7171;50.936;6.764;2023-05-07T09:57:02;21.00;99.90
14182;DHT22;7171;50.936;6.764;2023-05-07T09:59:31;20.90;99.90
14182;DHT22;7171;50.936;6.764;2023-05-07T10:01:59;21.00;99.90
14182;DHT22;7171;50.936;6.764;2023-05-07T10:04:26;21.10;99.90
14182;DHT22;7171;50.936;6.764;2023-05-07T10:06:53;21.30;99.90
14182;DHT22;7171;50.936;6.764;2023-05-07T10:22:39;21.60;99.90
14182;DHT22;7171;50.936;6.764;2023-05-07T10:37:44;22.10;99.90
14182;DHT22;7171;50.936;6.764;2023-05-07T10:40:12;22.10;99.90
14182;DHT22;7171;50.936;6.764;2023-05-07T10:42:53;22.10;99.90
14182;DHT22;7171;50.936;6.764;2023-05-07T10:45:21;22.20;99.90
14182;DHT22;7171;50.936;6.764;2023-05-07T10:48:08;22.20;99.90
14182;DHT22;7171;50.936;6.764;2023-05-07T10:50:35;22.40;99.90
14182;DHT22;7171;50.936;6.764;2023-05-07T10:53:25;22.40;99.90
14182;DHT22;7171;50.936;6.764;2023-05-07T11:02:10;22.10;99.90
14182;DHT22;7171;50.936;6.764;2023-05-07T11:04:40;22.10;99.90
14182;DHT22;7171;50.936;6.764;2023-05-07T11:07:29;22.10;99.90
14182;DHT22;7171;50.936;6.764;2023-05-07T11:10:05;22.20;99.90
14182;DHT22;7171;50.936;6.764;2023-05-07T11:12:52;21.90;99.90
14182;DHT22;7171;50.936;6.764;2023-05-07T11:15:42;21.90;99.90
14182;DHT22;7171;50.936;6.764;2023-05-07T11:18:12;21.80;99.90
14182;DHT22;7171;50.936;6.764;2023-05-07T11:21:00;21.90;99.90
14182;DHT22;7171;50.936;6.764;2023-05-07T11:23:55;21.80;99.90
14182;DHT22;7171;50.936;6.764;2023-05-07T11:26:22;21.70;99.90
14182;DHT22;7171;50.936;6.764;2023-05-07T11:28:49;21.70;99.90
14182;DHT22;7171;50.936;6.764;2023-05-07T11:31:21;21.80;99.90
14182;DHT22;7171;50.936;6.764;2023-05-07T11:33:49;21.80;99.90
14182;DHT22;7171;50.936;6.764;2023-05-07T11:36:17;21.80;99.90
14182;DHT22;7171;50.936;6.764;2023-05-07T11:38:44;21.70;99.90
14182;DHT22;7171;50.936;6.764;2023-05-07T11:41:11;21.70;99.90
14182;DHT22;7171;50.936;6.764;2023-05-07T11:43:40;21.70;99.90
14182;DHT22;7171;50.936;6.764;2023-05-07T11:46:20;21.80;99.90
14182;DHT22;7171;50.936;6.764;2023-05-07T11:48:48;21.60;99.90
14182;DHT22;7171;50.936;6.764;2023-05-07T11:51:19;21.70;99.90
14182;DHT22;7171;50.936;6.764;2023-05-07T11:53:46;21.70;99.90
14182;DHT22;7171;50.936;6.764;2023-05-07T11:56:14;21.70;99.90
14182;DHT22;7171;50.936;6.764;2023-05-07T11:58:41;21.60;99.90
14182;DHT22;7171;50.936;6.764;2023-05-07T12:01:09;21.70;99.90
14182;DHT22;7171;50.936;6.764;2023-05-07T12:03:36;21.90;99.90
14182;DHT22;7171;50.936;6.764;2023-05-07T12:06:07;21.80;99.90
14182;DHT22;7171;50.936;6.764;2023-05-07T12:08:36;21.70;99.90
14182;DHT22;7171;50.936;6.764;2023-05-07T12:11:03;21.80;99.90
14182;DHT22;7171;50.936;6.764;2023-05-07T12:13:33;21.80;99.90
14182;DHT22;7171;50.936;6.764;2023-05-07T12:16:00;21.90;99.90
14182;DHT22;7171;50.936;6.764;2023-05-07T12:18:28;21.80;99.90
14182;DHT22;7171;50.936;6.764;2023-05-07T12:20:56;21.90;99.90
14182;DHT22;7171;50.936;6.764;2023-05-07T12:23:24;21.90;99.90
14182;DHT22;7171;50.936;6.764;2023-05-07T12:25:51;21.90;99.90
14182;DHT22;7171;50.936;6.764;2023-05-07T12:28:19;21.90;99.90
14182;DHT22;7171;50.936;6.764;2023-05-07T12:30:47;22.00;99.90
14182;DHT22;7171;50.936;6.764;2023-05-07T12:33:16;21.90;99.90
14182;DHT22;7171;50.936;6.764;2023-05-07T12:35:44;21.90;99.90
14182;DHT22;7171;50.936;6.764;2023-05-07T12:38:12;21.90;99.90
14182;DHT22;7171;50.936;6.764;2023-05-07T12:40:42;21.90;99.90
14182;DHT22;7171;50.936;6.764;2023-05-07T12:43:15;21.80;99.90
14182;DHT22;7171;50.936;6.764;2023-05-07T12:45:42;22.00;99.90
14182;DHT22;7171;50.936;6.764;2023-05-07T12:48:10;21.90;99.90
14182;DHT22;7171;50.936;6.764;2023-05-07T12:50:36;21.80;99.90
14182;DHT22;7171;50.936;6.764;2023-05-07T12:53:04;21.70;99.90
14182;DHT22;7171;50.936;6.764;2023-05-07T12:55:32;21.60;99.90
14182;DHT22;7171;50.936;6.764;2023-05-07T12:58:01;21.70;99.90
14182;DHT22;7171;50.936;6.764;2023-05-07T13:00:35;21.60;99.90
14182;DHT22;7171;50.936;6.764;2023-05-07T13:03:02;21.50;99.90
14182;DHT22;7171;50.936;6.764;2023-05-07T13:05:29;21.50;99.90
14182;DHT22;7171;50.936;6.764;2023-05-07T13:07:56;21.80;99.90
14182;DHT22;7171;50.936;6.764;2023-05-07T13:10:23;21.40;99.90
14182;DHT22;7171;50.936;6.764;2023-05-07T13:12:50;21.50;99.90
14182;DHT22;7171;50.936;6.764;2023-05-07T13:15:19;21.40;99.90
14182;DHT22;7171;50.936;6.764;2023-05-07T13:17:46;21.40;99.90
14182;DHT22;7171;50.936;6.764;2023-05-07T13:20:13;21.40;99.90
14182;DHT22;7171;50.936;6.764;2023-05-07T13:22:40;21.40;99.90
14182;DHT22;7171;50.936;6.764;2023-05-07T13:25:08;21.40;99.90
14182;DHT22;7171;50.936;6.764;2023-05-07T13:27:35;21.40;99.90
14182;DHT22;7171;50.936;6.764;2023-05-07T13:30:03;21.40;99.90
14182;DHT22;7171;50.936;6.764;2023-05-07T13:32:31;21.40;99.90
14182;DHT22;7171;50.936;6.764;2023-05-07T13:34:58;21.40;99.90
14182;DHT22;7171;50.936;6.764;2023-05-07T13:37:25;21.30;99.90
14182;DHT22;7171;50.936;6.764;2023-05-07T13:39:52;21.20;99.90
14182;DHT22;7171;50.936;6.764;2023-05-07T13:42:19;21.10;99.90
14182;DHT22;7171;50.936;6.764;2023-05-07T13:44:46;21.10;99.90
14182;DHT22;7171;50.936;6.764;2023-05-07T13:47:12;21.00;99.90
14182;DHT22;7171;50.936;6.764;2023-05-07T13:49:40;21.10;99.90
14182;DHT22;7171;50.936;6.764;2023-05-07T13:52:07;20.90;99.90
14182;DHT22;7171;50.936;6.764;2023-05-07T13:54:34;20.70;99.90
14182;DHT22;7171;50.936;6.764;2023-05-07T13:57:01;20.70;99.90
14182;DHT22;7171;50.936;6.764;2023-05-07T13:59:28;20.60;99.90
14182;DHT22;7171;50.936;6.764;2023-05-07T14:01:54;20.50;99.90
14182;DHT22;7171;50.936;6.764;2023-05-07T14:04:21;20.40;99.90
14182;DHT22;7171;50.936;6.764;2023-05-07T14:11:43;20.00;99.90
14182;DHT22;7171;50.936;6.764;2023-05-07T14:19:07;20.00;99.90
14182;DHT22;7171;50.936;6.764;2023-05-07T14:21:34;20.00;99.90
14182;DHT22;7171;50.936;6.764;2023-05-07T14:24:02;20.00;99.90
14182;DHT22;7171;50.936;6.764;2023-05-07T14:26:29;20.00;99.90
14182;DHT22;7171;50.936;6.764;2023-05-07T14:28:56;20.00;99.90
14182;DHT22;7171;50.936;6.764;2023-05-07T14:31:23;20.10;99.90
14182;DHT22;7171;50.936;6.764;2023-05-07T14:33:51;20.00;99.90
14182;DHT22;7171;50.936;6.764;2023-05-07T14:36:18;20.00;99.90
14182;DHT22;7171;50.936;6.764;2023-05-07T14:38:46;20.10;99.90
14182;DHT22;7171;50.936;6.764;2023-05-07T14:41:15;20.10;99.90
14182;DHT22;7171;50.936;6.764;2023-05-07T14:43:42;20.00;99.90
14182;DHT22;7171;50.936;6.764;2023-05-07T14:46:09;20.10;99.90
14182;DHT22;7171;50.936;6.764;2023-05-07T14:48:36;20.10;99.90
14182;DHT22;7171;50.936;6.764;2023-05-07T14:51:02;20.10;99.90
14182;DHT22;7171;50.936;6.764;2023-05-07T14:53:29;20.00;99.90
14182;DHT22;7171;50.936;6.764;2023-05-07T14:55:56;20.10;99.90
14182;DHT22;7171;50.936;6.764;2023-05-07T14:58:24;20.10;99.90
14182;DHT22;7171;50.936;6.764;2023-05-07T15:00:51;20.10;99.90
14182;DHT22;7171;50.936;6.764;2023-05-07T15:03:18;20.10;99.90
14182;DHT22;7171;50.936;6.764;2023-05-07T15:05:45;20.20;99.90
14182;DHT22;7171;50.936;6.764;2023-05-07T15:08:12;20.20;99.90
14182;DHT22;7171;50.936;6.764;2023-05-07T15:10:39;20.00;99.90
14182;DHT22;7171;50.936;6.764;2023-05-07T15:13:07;20.10;99.90
14182;DHT22;7171;50.936;6.764;2023-05-07T15:15:35;20.10;99.90
14182;DHT22;7171;50.936;6.764;2023-05-07T15:18:02;20.10;99.90
14182;DHT22;7171;50.936;6.764;2023-05-07T15:20:29;20.00;99.90
14182;DHT22;7171;50.936;6.764;2023-05-07T15:22:56;20.10;99.90
14182;DHT22;7171;50.936;6.764;2023-05-07T15:25:23;20.10;99.90
14182;DHT22;7171;50.936;6.764;2023-05-07T15:27:50;20.10;99.90
14182;DHT22;7171;50.936;6.764;2023-05-07T15:30:17;20.10;99.90
14182;DHT22;7171;50.936;6.764;2023-05-07T15:32:46;20.10;99.90
14182;DHT22;7171;50.936;6.764;2023-05-07T15:35:13;20.20;99.90
14182;DHT22;7171;50.936;6.764;2023-05-07T15:37:40;20.30;99.90
14182;DHT22;7171;50.936;6.764;2023-05-07T15:40:08;20.30;99.90
14182;DHT22;7171;50.936;6.764;2023-05-07T15:42:36;20.30;99.90
14182;DHT22;7171;50.936;6.764;2023-05-07T15:45:03;20.70;99.90
14182;DHT22;7171;50.936;6.764;2023-05-07T15:47:32;20.40;99.90
14182;DHT22;7171;50.936;6.764;2023-05-07T15:50:01;20.60;99.90
14182;DHT22;7171;50.936;6.764;2023-05-07T15:52:28;20.70;99.90
14182;DHT22;7171;50.936;6.764;2023-05-07T15:54:55;20.70;99.90
14182;DHT22;7171;50.936;6.764;2023-05-07T15:57:22;20.70;99.90
14182;DHT22;7171;50.936;6.764;2023-05-07T15:59:49;20.70;99.90
14182;DHT22;7171;50.936;6.764;2023-05-07T16:02:16;20.80;99.90
14182;DHT22;7171;50.936;6.764;2023-05-07T16:04:42;20.60;99.90
14182;DHT22;7171;50.936;6.764;2023-05-07T16:07:10;20.70;99.90
14182;DHT22;7171;50.936;6.764;2023-05-07T16:09:37;20.70;99.90
14182;DHT22;7171;50.936;6.764;2023-05-07T16:12:04;20.50;99.90
14182;DHT22;7171;50.936;6.764;2023-05-07T16:14:31;20.50;99.90
14182;DHT22;7171;50.936;6.764;2023-05-07T16:16:58;20.60;99.90
14182;DHT22;7171;50.936;6.764;2023-05-07T16:19:26;20.60;99.90
14182;DHT22;7171;50.936;6.764;2023-05-07T16:21:52;20.60;99.90
14182;DHT22;7171;50.936;6.764;2023-05-07T16:24:21;20.50;99.90
14182;DHT22;7171;50.936;6.764;2023-05-07T16:26:47;20.60;99.90
14182;DHT22;7171;50.936;6.764;2023-05-07T16:29:14;20.50;99.90
14182;DHT22;7171;50.936;6.764;2023-05-07T16:31:41;20.50;99.90
14182;DHT22;7171;50.936;6.764;2023-05-07T16:34:09;20.50;99.90
14182;DHT22;7171;50.936;6.764;2023-05-07T16:36:35;20.40;99.90
14182;DHT22;7171;50.936;6.764;2023-05-07T16:39:02;20.40;99.90
14182;DHT22;7171;50.936;6.764;2023-05-07T16:41:30;20.40;99.90